This is the latest recevied weather packets stored in our database for station/object YO8SHU-10. If no packets are shown the sender has not sent any weather packets the latest 10 day(s).
| Time | Temp. | Humidity | Pressure | Rain* | Wind** | Luminosity | Snow |
|---|---|---|---|---|---|---|---|
| 1777959033 | 16.67° C | 75% | 1021.2 hPa | - | - | - | - |
| 1777957233 | 14.44° C | 73% | 1021.2 hPa | - | - | - | - |
| 1777955433 | 12.78° C | 92% | 1021.1 hPa | - | - | - | - |
| 1777953633 | 11.67° C | 95% | 1021 hPa | - | - | - | - |
| 1777951833 | 9.44° C | 100% | 1021.1 hPa | - | - | - | - |
| 1777950032 | 8.89° C | 100% | 1020.9 hPa | - | - | - | - |
| 1777948232 | 8.89° C | 100% | 1020.9 hPa | - | - | - | - |
| 1777946432 | 9.44° C | 100% | 1020.9 hPa | - | - | - | - |
| 1777944632 | 10° C | 100% | 1020.9 hPa | - | - | - | - |
| 1777942832 | 10.56° C | 100% | 1020.8 hPa | - | - | - | - |
| 1777941032 | 11.11° C | 94% | 1020.6 hPa | - | - | - | - |
| 1777939232 | 11.67° C | 91% | 1020.7 hPa | - | - | - | - |
| 1777937432 | 11.67° C | 94% | 1020.7 hPa | - | - | - | - |
| 1777935632 | 12.78° C | 90% | 1020.9 hPa | - | - | - | - |
| 1777933832 | 13.33° C | 79% | 1020.9 hPa | - | - | - | - |
| 1777932031 | 12.78° C | 83% | 1021 hPa | - | - | - | - |
| 1777930231 | 13.89° C | 80% | 1021.1 hPa | - | - | - | - |
| 1777928431 | 13.89° C | 78% | 1020.9 hPa | - | - | - | - |
| 1777926631 | 15° C | 67% | 1020.7 hPa | - | - | - | - |
| 1777924831 | 15.56° C | 63% | 1020.6 hPa | - | - | - | - |
| 1777923031 | 16.11° C | 65% | 1020.5 hPa | - | - | - | - |
| 1777921231 | 17.78° C | 48% | 1020.3 hPa | - | - | - | - |
| 1777919431 | 18.89° C | 40% | 1020.2 hPa | - | - | - | - |
| 1777917631 | 20° C | 35% | 1020 hPa | - | - | - | - |
| 1777915831 | 21.11° C | 33% | 1019.7 hPa | - | - | - | - |
* Rain since midnight (hover to see other rain measurements)
** Current wind speed in m/s (hover to see current wind gust speed)